sensor_id;sensor_type;location;lat;lon;timestamp;pressure;altitude;pressure_sealevel;temperature;humidity
74680;BME280;63211;48.548;2.704;2023-04-01T00:01:58;99621.72;;;18.82;59.72
74680;BME280;63211;48.548;2.704;2023-04-01T00:04:24;99618.72;;;18.83;59.45
74680;BME280;63211;48.548;2.704;2023-04-01T00:06:51;99625.00;;;18.84;59.57
74680;BME280;63211;48.548;2.704;2023-04-01T00:09:18;99621.72;;;18.82;59.42
74680;BME280;63211;48.548;2.704;2023-04-01T00:11:46;99626.91;;;18.83;59.45
74680;BME280;63211;48.548;2.704;2023-04-01T00:14:12;99621.97;;;18.80;59.38
74680;BME280;63211;48.548;2.704;2023-04-01T00:16:39;99617.59;;;18.79;59.40
74680;BME280;63211;48.548;2.704;2023-04-01T00:19:05;99613.09;;;18.68;59.81
74680;BME280;63211;48.548;2.704;2023-04-01T00:21:32;99623.28;;;18.78;59.38
74680;BME280;63211;48.548;2.704;2023-04-01T00:23:59;99624.13;;;18.78;59.31
74680;BME280;63211;48.548;2.704;2023-04-01T00:26:27;99630.66;;;18.77;59.40
74680;BME280;63211;48.548;2.704;2023-04-01T00:28:55;99627.66;;;18.79;59.29
74680;BME280;63211;48.548;2.704;2023-04-01T00:31:21;99626.84;;;18.78;59.15
74680;BME280;63211;48.548;2.704;2023-04-01T00:33:48;99620.00;;;18.76;59.25
74680;BME280;63211;48.548;2.704;2023-04-01T00:36:16;99618.09;;;18.76;59.38
74680;BME280;63211;48.548;2.704;2023-04-01T00:38:43;99618.59;;;18.73;59.41
74680;BME280;63211;48.548;2.704;2023-04-01T00:41:10;99629.25;;;18.75;59.20
74680;BME280;63211;48.548;2.704;2023-04-01T00:43:40;99623.28;;;18.78;59.10
74680;BME280;63211;48.548;2.704;2023-04-01T00:46:08;99620.38;;;18.84;58.36
74680;BME280;63211;48.548;2.704;2023-04-01T00:48:36;99624.84;;;18.91;58.00
74680;BME280;63211;48.548;2.704;2023-04-01T00:51:06;99630.31;;;18.96;57.70
74680;BME280;63211;48.548;2.704;2023-04-01T00:53:38;99620.50;;;18.95;57.58
74680;BME280;63211;48.548;2.704;2023-04-01T00:56:12;99626.00;;;19.00;57.44
74680;BME280;63211;48.548;2.704;2023-04-01T00:58:42;99628.75;;;19.00;57.50
74680;BME280;63211;48.548;2.704;2023-04-01T01:01:11;99636.66;;;19.01;57.59
74680;BME280;63211;48.548;2.704;2023-04-01T01:03:38;99625.00;;;19.06;57.55
74680;BME280;63211;48.548;2.704;2023-04-01T01:06:18;99631.03;;;19.08;57.58
74680;BME280;63211;48.548;2.704;2023-04-01T01:09:02;99599.16;;;18.92;57.81
74680;BME280;63211;48.548;2.704;2023-04-01T01:11:37;99628.81;;;19.05;58.07
74680;BME280;63211;48.548;2.704;2023-04-01T01:14:11;99625.31;;;19.09;58.42
74680;BME280;63211;48.548;2.704;2023-04-01T01:16:45;99625.31;;;19.09;58.77
74680;BME280;63211;48.548;2.704;2023-04-01T01:19:30;99620.31;;;19.01;59.35
74680;BME280;63211;48.548;2.704;2023-04-01T01:22:20;99616.19;;;18.99;59.34
74680;BME280;63211;48.548;2.704;2023-04-01T01:25:02;99621.63;;;18.99;59.42
74680;BME280;63211;48.548;2.704;2023-04-01T01:27:34;99624.88;;;18.96;59.32
74680;BME280;63211;48.548;2.704;2023-04-01T01:30:25;99623.22;;;18.95;59.41
74680;BME280;63211;48.548;2.704;2023-04-01T01:33:19;99622.38;;;18.94;59.32
74680;BME280;63211;48.548;2.704;2023-04-01T01:35:52;99624.84;;;18.91;59.24
74680;BME280;63211;48.548;2.704;2023-04-01T01:38:23;99621.81;;;18.92;59.36
74680;BME280;63211;48.548;2.704;2023-04-01T01:40:51;99626.19;;;18.93;59.44
74680;BME280;63211;48.548;2.704;2023-04-01T01:43:22;99618.59;;;18.95;58.83
74680;BME280;63211;48.548;2.704;2023-04-01T01:45:52;99625.66;;;18.91;59.10
74680;BME280;63211;48.548;2.704;2023-04-01T01:48:20;99622.03;;;18.85;59.43
74680;BME280;63211;48.548;2.704;2023-04-01T01:50:49;99615.75;;;18.85;59.29
74680;BME280;63211;48.548;2.704;2023-04-01T01:53:16;99630.22;;;18.85;59.54
74680;BME280;63211;48.548;2.704;2023-04-01T01:55:44;99624.19;;;18.83;59.09
74680;BME280;63211;48.548;2.704;2023-04-01T01:58:14;99626.66;;;18.85;59.17
74680;BME280;63211;48.548;2.704;2023-04-01T02:00:44;99630.47;;;18.84;59.28
74680;BME280;63211;48.548;2.704;2023-04-01T02:03:13;99621.97;;;18.80;59.17
74680;BME280;63211;48.548;2.704;2023-04-01T02:05:40;99615.44;;;18.81;59.09
74680;BME280;63211;48.548;2.704;2023-04-01T02:08:12;99621.47;;;18.83;58.92
74680;BME280;63211;48.548;2.704;2023-04-01T02:10:41;99605.22;;;18.72;58.87
74680;BME280;63211;48.548;2.704;2023-04-01T02:13:14;99618.41;;;18.80;59.22
74680;BME280;63211;48.548;2.704;2023-04-01T02:15:45;99624.69;;;18.80;58.88
74680;BME280;63211;48.548;2.704;2023-04-01T02:18:14;99620.56;;;18.78;59.15
74680;BME280;63211;48.548;2.704;2023-04-01T02:20:43;99621.41;;;18.78;58.97
74680;BME280;63211;48.548;2.704;2023-04-01T02:23:12;99628.50;;;18.79;58.88
74680;BME280;63211;48.548;2.704;2023-04-01T02:25:41;99626.84;;;18.78;58.79
74680;BME280;63211;48.548;2.704;2023-04-01T02:28:09;99625.19;;;18.77;58.52
74680;BME280;63211;48.548;2.704;2023-04-01T02:30:38;99620.56;;;18.78;58.85
74680;BME280;63211;48.548;2.704;2023-04-01T02:33:06;99620.81;;;18.76;58.76
74680;BME280;63211;48.548;2.704;2023-04-01T02:35:34;99625.44;;;18.76;58.67
74680;BME280;63211;48.548;2.704;2023-04-01T02:38:01;99638.06;;;18.82;58.37
74680;BME280;63211;48.548;2.704;2023-04-01T02:40:29;99630.78;;;18.87;57.85
74680;BME280;63211;48.548;2.704;2023-04-01T02:42:56;99624.53;;;18.92;57.42
74680;BME280;63211;48.548;2.704;2023-04-01T02:45:22;99632.22;;;18.95;56.98
74680;BME280;63211;48.548;2.704;2023-04-01T02:47:49;99626.72;;;18.90;57.02
74680;BME280;63211;48.548;2.704;2023-04-01T02:50:16;99624.63;;;18.97;56.74
74680;BME280;63211;48.548;2.704;2023-04-01T02:52:42;99630.91;;;18.98;56.86
74680;BME280;63211;48.548;2.704;2023-04-01T02:55:09;99637.16;;;18.98;56.94
74680;BME280;63211;48.548;2.704;2023-04-01T02:57:37;99632.88;;;19.02;57.06
74680;BME280;63211;48.548;2.704;2023-04-01T03:00:04;99636.72;;;19.06;56.69
74680;BME280;63211;48.548;2.704;2023-04-01T03:02:36;99642.44;;;19.05;57.21
74680;BME280;63211;48.548;2.704;2023-04-01T03:05:04;99636.97;;;19.05;57.39
74680;BME280;63211;48.548;2.704;2023-04-01T03:07:31;99643.00;;;19.07;57.66
74680;BME280;63211;48.548;2.704;2023-04-01T03:09:57;99640.84;;;19.09;57.69
74680;BME280;63211;48.548;2.704;2023-04-01T03:12:24;99647.38;;;19.08;57.73
74680;BME280;63211;48.548;2.704;2023-04-01T03:14:52;99637.81;;;19.05;58.03
74680;BME280;63211;48.548;2.704;2023-04-01T03:17:18;99636.59;;;18.96;58.12
74680;BME280;63211;48.548;2.704;2023-04-01T03:19:45;99649.41;;;18.96;58.39
74680;BME280;63211;48.548;2.704;2023-04-01T03:22:12;99643.72;;;18.97;58.34
74680;BME280;63211;48.548;2.704;2023-04-01T03:24:38;99652.72;;;18.98;58.12
74680;BME280;63211;48.548;2.704;2023-04-01T03:27:05;99657.59;;;18.96;58.35
74680;BME280;63211;48.548;2.704;2023-04-01T03:29:32;99652.41;;;18.94;58.44
74680;BME280;63211;48.548;2.704;2023-04-01T03:32:00;99646.94;;;18.94;58.39
74680;BME280;63211;48.548;2.704;2023-04-01T03:34:26;99663.06;;;18.96;58.48
74680;BME280;63211;48.548;2.704;2023-04-01T03:36:53;99665.47;;;18.92;58.41
74680;BME280;63211;48.548;2.704;2023-04-01T03:39:19;99675.28;;;18.93;58.13
74680;BME280;63211;48.548;2.704;2023-04-01T03:41:47;99673.91;;;18.91;58.35
74680;BME280;63211;48.548;2.704;2023-04-01T03:44:13;99669.78;;;18.88;58.11
74680;BME280;63211;48.548;2.704;2023-04-01T03:46:40;99669.72;;;18.83;58.41
74680;BME280;63211;48.548;2.704;2023-04-01T03:49:09;99670.28;;;18.85;58.15
74680;BME280;63211;48.548;2.704;2023-04-01T03:51:37;99668.31;;;18.80;58.44
74680;BME280;63211;48.548;2.704;2023-04-01T03:54:04;99679.56;;;18.84;58.40
74680;BME280;63211;48.548;2.704;2023-04-01T03:56:31;99671.38;;;18.84;58.12
74680;BME280;63211;48.548;2.704;2023-04-01T03:58:57;99669.72;;;18.83;58.65
74680;BME280;63211;48.548;2.704;2023-04-01T04:01:24;99675.69;;;18.80;58.13
74680;BME280;63211;48.548;2.704;2023-04-01T04:03:51;99683.59;;;18.81;58.04
74680;BME280;63211;48.548;2.704;2023-04-01T04:06:19;99674.84;;;18.79;57.98
74680;BME280;63211;48.548;2.704;2023-04-01T04:08:46;99671.31;;;18.79;58.30
74680;BME280;63211;48.548;2.704;2023-04-01T04:11:13;99677.84;;;18.78;58.06
74680;BME280;63211;48.548;2.704;2023-04-01T04:13:40;99683.03;;;18.79;58.10
74680;BME280;63211;48.548;2.704;2023-04-01T04:16:07;99677.25;;;18.76;58.21
74680;BME280;63211;48.548;2.704;2023-04-01T04:18:35;99673.47;;;18.77;57.95
74680;BME280;63211;48.548;2.704;2023-04-01T04:21:01;99669.31;;;18.74;58.00
74680;BME280;63211;48.548;2.704;2023-04-01T04:23:30;99681.88;;;18.75;58.12
74680;BME280;63211;48.548;2.704;2023-04-01T04:26:00;99679.47;;;18.79;58.03
74680;BME280;63211;48.548;2.704;2023-04-01T04:28:27;99683.69;;;18.86;57.79
74680;BME280;63211;48.548;2.704;2023-04-01T04:30:54;99669.72;;;18.83;57.08
74680;BME280;63211;48.548;2.704;2023-04-01T04:33:22;99680.50;;;18.95;56.78
74680;BME280;63211;48.548;2.704;2023-04-01T04:35:49;99682.16;;;18.96;56.66
74680;BME280;63211;48.548;2.704;2023-04-01T04:38:16;99684.63;;;18.97;56.35
74680;BME280;63211;48.548;2.704;2023-04-01T04:40:44;99681.66;;;18.99;56.57
74680;BME280;63211;48.548;2.704;2023-04-01T04:43:12;99696.09;;;18.99;56.50
74680;BME280;63211;48.548;2.704;2023-04-01T04:45:39;99689.25;;;18.97;56.41
74680;BME280;63211;48.548;2.704;2023-04-01T04:48:07;99702.72;;;19.03;56.50
74680;BME280;63211;48.548;2.704;2023-04-01T04:50:34;99695.59;;;19.02;56.59
74680;BME280;63211;48.548;2.704;2023-04-01T04:53:01;99702.13;;;19.01;56.94
74680;BME280;63211;48.548;2.704;2023-04-01T04:55:27;99710.63;;;19.05;56.75
74680;BME280;63211;48.548;2.704;2023-04-01T04:57:55;99718.81;;;19.05;57.27
74680;BME280;63211;48.548;2.704;2023-04-01T05:00:22;99729.75;;;19.05;57.31
74680;BME280;63211;48.548;2.704;2023-04-01T05:02:49;99731.38;;;19.06;57.23
74680;BME280;63211;48.548;2.704;2023-04-01T05:05:15;99729.75;;;19.05;57.50
74680;BME280;63211;48.548;2.704;2023-04-01T05:07:42;99725.94;;;19.06;57.39
74680;BME280;63211;48.548;2.704;2023-04-01T05:10:09;99737.94;;;19.05;57.30
74680;BME280;63211;48.548;2.704;2023-04-01T05:12:36;99732.97;;;19.02;57.08
74680;BME280;63211;48.548;2.704;2023-04-01T05:15:06;99738.09;;;18.98;56.91
74680;BME280;63211;48.548;2.704;2023-04-01T05:17:33;99744.63;;;18.97;57.54
74680;BME280;63211;48.548;2.704;2023-04-01T05:20:00;99742.16;;;18.96;57.60
74680;BME280;63211;48.548;2.704;2023-04-01T05:22:27;99744.06;;;18.95;57.63
74680;BME280;63211;48.548;2.704;2023-04-01T05:24:54;99735.81;;;18.90;57.59
74680;BME280;63211;48.548;2.704;2023-04-01T05:27:21;99752.25;;;18.95;57.91
74680;BME280;63211;48.548;2.704;2023-04-01T05:29:48;99752.50;;;18.94;57.43
74680;BME280;63211;48.548;2.704;2023-04-01T05:32:16;99744.31;;;18.94;57.76
74680;BME280;63211;48.548;2.704;2023-04-01T05:34:43;99744.56;;;18.92;57.75
74680;BME280;63211;48.548;2.704;2023-04-01T05:37:09;99753.06;;;18.96;57.38
74680;BME280;63211;48.548;2.704;2023-04-01T05:39:36;99753.56;;;18.93;57.48
74680;BME280;63211;48.548;2.704;2023-04-01T05:42:05;99748.63;;;18.90;57.75
74680;BME280;63211;48.548;2.704;2023-04-01T05:44:32;99753.78;;;18.86;57.65
74680;BME280;63211;48.548;2.704;2023-04-01T05:46:59;99755.91;;;18.84;57.67
74680;BME280;63211;48.548;2.704;2023-04-01T05:49:27;99761.38;;;18.84;57.85
74680;BME280;63211;48.548;2.704;2023-04-01T05:51:53;99765.16;;;18.83;57.91
74680;BME280;63211;48.548;2.704;2023-04-01T05:54:20;99758.91;;;18.82;57.46
74680;BME280;63211;48.548;2.704;2023-04-01T05:56:46;99764.59;;;18.81;57.85
74680;BME280;63211;48.548;2.704;2023-04-01T05:59:13;99765.41;;;18.81;57.66
74680;BME280;63211;48.548;2.704;2023-04-01T06:01:40;99775.50;;;18.81;57.55
74680;BME280;63211;48.548;2.704;2023-04-01T06:04:09;99768.41;;;18.80;57.58
74680;BME280;63211;48.548;2.704;2023-04-01T06:06:38;99771.13;;;18.80;57.65
74680;BME280;63211;48.548;2.704;2023-04-01T06:09:12;99784.75;;;18.80;57.65
74680;BME280;63211;48.548;2.704;2023-04-01T06:11:46;99786.09;;;18.77;57.69
74680;BME280;63211;48.548;2.704;2023-04-01T06:14:24;99771.03;;;18.75;57.54
74680;BME280;63211;48.548;2.704;2023-04-01T06:17:07;99784.09;;;18.90;56.97
74680;BME280;63211;48.548;2.704;2023-04-01T06:19:47;99793.16;;;18.95;56.32
74680;BME280;63211;48.548;2.704;2023-04-01T06:22:41;99790.19;;;18.97;56.17
74680;BME280;63211;48.548;2.704;2023-04-01T06:25:21;99791.81;;;18.98;56.11
74680;BME280;63211;48.548;2.704;2023-04-01T06:28:01;99795.38;;;18.98;56.25
74680;BME280;63211;48.548;2.704;2023-04-01T06:30:40;99800.59;;;19.00;56.09
74680;BME280;63211;48.548;2.704;2023-04-01T06:33:23;99804.97;;;19.01;56.34
74680;BME280;63211;48.548;2.704;2023-04-01T06:36:05;99817.88;;;19.05;55.93
74680;BME280;63211;48.548;2.704;2023-04-01T06:38:57;99814.56;;;19.03;55.88
74680;BME280;63211;48.548;2.704;2023-04-01T06:41:49;99818.38;;;19.02;55.96
74680;BME280;63211;48.548;2.704;2023-04-01T06:44:28;99824.91;;;19.01;56.00
74680;BME280;63211;48.548;2.704;2023-04-01T06:47:07;99824.41;;;19.04;56.38
74680;BME280;63211;48.548;2.704;2023-04-01T06:49:47;99831.75;;;19.04;56.32
74680;BME280;63211;48.548;2.704;2023-04-01T06:52:21;99836.13;;;19.05;56.26
74680;BME280;63211;48.548;2.704;2023-04-01T06:54:56;99838.88;;;19.05;56.37
74680;BME280;63211;48.548;2.704;2023-04-01T06:57:30;99842.34;;;19.00;56.52
74680;BME280;63211;48.548;2.704;2023-04-01T07:00:00;99826.13;;;18.94;56.46
74680;BME280;63211;48.548;2.704;2023-04-01T07:02:34;99830.34;;;19.01;56.65
74680;BME280;63211;48.548;2.704;2023-04-01T07:05:04;99837.78;;;19.06;56.75
74680;BME280;63211;48.548;2.704;2023-04-01T07:07:34;99828.63;;;18.95;56.66
74680;BME280;63211;48.548;2.704;2023-04-01T07:10:09;99838.28;;;19.03;56.72
74680;BME280;63211;48.548;2.704;2023-04-01T07:12:43;99836.88;;;19.00;56.83
74680;BME280;63211;48.548;2.704;2023-04-01T07:15:16;99843.91;;;18.96;56.94
74680;BME280;63211;48.548;2.704;2023-04-01T07:17:45;99837.03;;;18.94;56.97
74680;BME280;63211;48.548;2.704;2023-04-01T07:20:17;99831.00;;;18.92;56.79
74680;BME280;63211;48.548;2.704;2023-04-01T07:22:48;99843.03;;;18.91;56.77
74680;BME280;63211;48.548;2.704;2023-04-01T07:25:18;99845.41;;;18.87;56.79
74680;BME280;63211;48.548;2.704;2023-04-01T07:27:46;99856.66;;;18.91;56.76
74680;BME280;63211;48.548;2.704;2023-04-01T07:30:15;99853.94;;;18.91;56.99
74680;BME280;63211;48.548;2.704;2023-04-01T07:32:44;99844.25;;;18.83;57.05
74680;BME280;63211;48.548;2.704;2023-04-01T07:35:19;99854.44;;;18.87;57.12
74680;BME280;63211;48.548;2.704;2023-04-01T07:37:57;99862.63;;;18.87;56.90
74680;BME280;63211;48.548;2.704;2023-04-01T07:40:32;99846.66;;;18.79;57.19
74680;BME280;63211;48.548;2.704;2023-04-01T07:43:22;99854.94;;;18.84;56.82
74680;BME280;63211;48.548;2.704;2023-04-01T07:45:59;99859.56;;;18.84;56.81
74680;BME280;63211;48.548;2.704;2023-04-01T07:48:33;99858.72;;;18.83;56.64
74680;BME280;63211;48.548;2.704;2023-04-01T07:51:08;99865.84;;;18.84;56.88
74680;BME280;63211;48.548;2.704;2023-04-01T07:53:43;99857.91;;;18.83;56.85
74680;BME280;63211;48.548;2.704;2023-04-01T07:56:15;99853.50;;;18.82;56.99
74680;BME280;63211;48.548;2.704;2023-04-01T07:58:51;99859.56;;;18.84;56.96
74680;BME280;63211;48.548;2.704;2023-04-01T08:01:25;99863.03;;;18.79;56.78
74680;BME280;63211;48.548;2.704;2023-04-01T08:04:15;99866.31;;;18.81;56.80
74680;BME280;63211;48.548;2.704;2023-04-01T08:06:47;99870.72;;;18.82;56.73
74680;BME280;63211;48.548;2.704;2023-04-01T08:09:24;99866.75;;;18.90;56.39
74680;BME280;63211;48.548;2.704;2023-04-01T08:12:02;99873.56;;;18.93;55.67
74680;BME280;63211;48.548;2.704;2023-04-01T08:14:36;99877.22;;;18.98;56.01
74680;BME280;63211;48.548;2.704;2023-04-01T08:17:09;99874.81;;;19.02;56.64
74680;BME280;63211;48.548;2.704;2023-04-01T08:19:50;99884.16;;;19.06;57.23
74680;BME280;63211;48.548;2.704;2023-04-01T08:22:22;99888.88;;;19.10;57.18
74680;BME280;63211;48.548;2.704;2023-04-01T08:24:54;99879.91;;;19.15;56.97
74680;BME280;63211;48.548;2.704;2023-04-01T08:27:28;99879.66;;;19.16;56.71
74680;BME280;63211;48.548;2.704;2023-04-01T08:30:01;99880.00;;;19.20;56.65
74680;BME280;63211;48.548;2.704;2023-04-01T08:32:34;99875.13;;;19.22;56.21
74680;BME280;63211;48.548;2.704;2023-04-01T08:35:09;99875.69;;;19.24;55.98
74680;BME280;63211;48.548;2.704;2023-04-01T08:37:41;99878.19;;;19.26;56.36
74680;BME280;63211;48.548;2.704;2023-04-01T08:40:27;99870.81;;;19.26;56.04
74680;BME280;63211;48.548;2.704;2023-04-01T08:43:08;99881.88;;;19.36;55.83
74680;BME280;63211;48.548;2.704;2023-04-01T08:45:46;99869.81;;;19.32;55.69
74680;BME280;63211;48.548;2.704;2023-04-01T08:48:27;99879.72;;;19.38;55.51
74680;BME280;63211;48.548;2.704;2023-04-01T08:51:26;99890.63;;;19.38;55.87
74680;BME280;63211;48.548;2.704;2023-04-01T08:54:16;99892.53;;;19.38;55.65
74680;BME280;63211;48.548;2.704;2023-04-01T08:56:52;99887.66;;;19.40;55.61
74680;BME280;63211;48.548;2.704;2023-04-01T08:59:31;99893.34;;;19.38;55.34
74680;BME280;63211;48.548;2.704;2023-04-01T09:02:16;99894.44;;;19.37;54.56
74680;BME280;63211;48.548;2.704;2023-04-01T09:07:46;99889.56;;;19.39;54.75
74680;BME280;63211;48.548;2.704;2023-04-01T09:10:28;99884.59;;;19.36;54.87
74680;BME280;63211;48.548;2.704;2023-04-01T09:13:03;99879.97;;;19.37;54.62
74680;BME280;63211;48.548;2.704;2023-04-01T09:15:46;99824.56;;;18.98;54.62
74680;BME280;63211;48.548;2.704;2023-04-01T09:18:46;99890.84;;;19.32;54.55
74680;BME280;63211;48.548;2.704;2023-04-01T09:21:28;99900.91;;;19.31;54.63
74680;BME280;63211;48.548;2.704;2023-04-01T09:24:24;99887.78;;;19.28;54.52
74680;BME280;63211;48.548;2.704;2023-04-01T09:27:03;99891.66;;;19.32;54.52
74680;BME280;63211;48.548;2.704;2023-04-01T09:29:44;99898.75;;;19.33;54.31
74680;BME280;63211;48.548;2.704;2023-04-01T09:32:38;99889.75;;;19.33;54.32
74680;BME280;63211;48.548;2.704;2023-04-01T09:35:21;99894.88;;;19.29;54.63
74680;BME280;63211;48.548;2.704;2023-04-01T09:37:53;99888.94;;;19.32;54.50
74680;BME280;63211;48.548;2.704;2023-04-01T09:40:25;99895.22;;;19.33;54.35
74680;BME280;63211;48.548;2.704;2023-04-01T09:43:28;99884.22;;;19.28;54.43
74680;BME280;63211;48.548;2.704;2023-04-01T09:46:11;99891.06;;;19.30;54.65
74680;BME280;63211;48.548;2.704;2023-04-01T09:49:04;99891.06;;;19.30;54.58
74680;BME280;63211;48.548;2.704;2023-04-01T09:51:43;99887.28;;;19.31;54.55
74680;BME280;63211;48.548;2.704;2023-04-01T09:54:26;99886.69;;;19.29;54.30
74680;BME280;63211;48.548;2.704;2023-04-01T10:00:37;99903.00;;;19.24;54.39
74680;BME280;63211;48.548;2.704;2023-04-01T10:15:53;99896.53;;;19.30;54.42
74680;BME280;63211;48.548;2.704;2023-04-01T10:22:07;99884.53;;;19.31;54.24
74680;BME280;63211;48.548;2.704;2023-04-01T10:27:49;99881.81;;;19.31;54.45
74680;BME280;63211;48.548;2.704;2023-04-01T10:30:36;99881.00;;;19.31;54.32
74680;BME280;63211;48.548;2.704;2023-04-01T10:33:38;99876.34;;;19.31;54.49
74680;BME280;63211;48.548;2.704;2023-04-01T10:42:43;99879.34;;;19.30;54.39
74680;BME280;63211;48.548;2.704;2023-04-01T10:45:49;99865.69;;;19.30;54.08
74680;BME280;63211;48.548;2.704;2023-04-01T10:48:48;99873.06;;;19.29;54.27
74680;BME280;63211;48.548;2.704;2023-04-01T10:51:45;99877.34;;;19.25;54.70
74680;BME280;63211;48.548;2.704;2023-04-01T10:54:38;99868.72;;;19.33;54.75
74680;BME280;63211;48.548;2.704;2023-04-01T10:57:21;99866.88;;;19.39;55.53
74680;BME280;63211;48.548;2.704;2023-04-01T11:00:15;99852.34;;;19.33;56.51
74680;BME280;63211;48.548;2.704;2023-04-01T11:03:17;99860.44;;;19.45;57.64
74680;BME280;63211;48.548;2.704;2023-04-01T11:15:26;99851.06;;;19.19;61.00
74680;BME280;63211;48.548;2.704;2023-04-01T11:18:15;99855.69;;;19.18;61.43
74680;BME280;63211;48.548;2.704;2023-04-01T11:21:28;99847.19;;;19.15;62.12
74680;BME280;63211;48.548;2.704;2023-04-01T11:24:29;99846.06;;;19.11;62.44
74680;BME280;63211;48.548;2.704;2023-04-01T11:27:10;99856.38;;;19.09;62.55
74680;BME280;63211;48.548;2.704;2023-04-01T11:29:56;99855.56;;;19.08;62.79
74680;BME280;63211;48.548;2.704;2023-04-01T11:32:38;99869.44;;;19.07;63.07
74680;BME280;63211;48.548;2.704;2023-04-01T11:35:28;99868.38;;;19.08;62.80
74680;BME280;63211;48.548;2.704;2023-04-01T11:38:03;99860.94;;;19.03;62.70
74680;BME280;63211;48.548;2.704;2023-04-01T11:40:37;99877.63;;;19.07;62.75
74680;BME280;63211;48.548;2.704;2023-04-01T11:43:10;99867.78;;;19.06;63.34
74680;BME280;63211;48.548;2.704;2023-04-01T11:45:44;99862.25;;;19.01;63.93
74680;BME280;63211;48.548;2.704;2023-04-01T11:48:23;99856.81;;;19.01;63.70
74680;BME280;63211;48.548;2.704;2023-04-01T11:51:08;99868.53;;;19.01;63.64
74680;BME280;63211;48.548;2.704;2023-04-01T11:53:46;99876.38;;;18.98;64.34
74680;BME280;63211;48.548;2.704;2023-04-01T11:56:28;99873.91;;;18.96;64.52
74680;BME280;63211;48.548;2.704;2023-04-01T11:59:31;99881.59;;;18.99;63.93
74680;BME280;63211;48.548;2.704;2023-04-01T12:02:10;99879.03;;;18.93;64.20
74680;BME280;63211;48.548;2.704;2023-04-01T12:05:07;99873.25;;;19.06;62.42
74680;BME280;63211;48.548;2.704;2023-04-01T12:08:00;99873.88;;;19.13;64.07
74680;BME280;63211;48.548;2.704;2023-04-01T12:10:37;99864.28;;;19.27;65.56
74680;BME280;63211;48.548;2.704;2023-04-01T12:13:09;99858.34;;;19.30;64.35
74680;BME280;63211;48.548;2.704;2023-04-01T12:15:52;99862.25;;;19.39;66.16
74680;BME280;63211;48.548;2.704;2023-04-01T12:18:27;99859.09;;;19.47;65.85
74680;BME280;63211;48.548;2.704;2023-04-01T12:21:14;99842.97;;;19.46;63.16
74680;BME280;63211;48.548;2.704;2023-04-01T12:24:25;99818.56;;;19.17;61.98
74680;BME280;63211;48.548;2.704;2023-04-01T12:26:59;99850.00;;;19.42;63.82
74680;BME280;63211;48.548;2.704;2023-04-01T12:29:51;99853.50;;;19.37;65.50
74680;BME280;63211;48.548;2.704;2023-04-01T12:32:25;99849.31;;;19.30;65.25
74680;BME280;63211;48.548;2.704;2023-04-01T12:35:08;99855.53;;;19.25;65.90
74680;BME280;63211;48.548;2.704;2023-04-01T12:37:48;99855.19;;;19.21;66.50
74680;BME280;63211;48.548;2.704;2023-04-01T12:40:23;99846.09;;;19.16;66.17
74680;BME280;63211;48.548;2.704;2023-04-01T12:43:13;99842.41;;;19.05;67.07
74680;BME280;63211;48.548;2.704;2023-04-01T12:45:45;99857.97;;;19.05;67.99
74680;BME280;63211;48.548;2.704;2023-04-01T12:48:39;99863.66;;;19.03;67.31
74680;BME280;63211;48.548;2.704;2023-04-01T12:51:41;99858.69;;;19.00;67.40
74680;BME280;63211;48.548;2.704;2023-04-01T12:57:44;99853.50;;;18.99;67.05
74680;BME280;63211;48.548;2.704;2023-04-01T13:00:18;99850.09;;;18.92;67.41
74680;BME280;63211;48.548;2.704;2023-04-01T13:03:05;99850.44;;;18.95;67.71
74680;BME280;63211;48.548;2.704;2023-04-01T13:06:03;99848.78;;;18.94;67.30
74680;BME280;63211;48.548;2.704;2023-04-01T13:08:38;99851.69;;;18.87;67.60
74680;BME280;63211;48.548;2.704;2023-04-01T13:11:18;99851.22;;;18.91;67.72
74680;BME280;63211;48.548;2.704;2023-04-01T13:14:08;99850.09;;;18.92;67.42
74680;BME280;63211;48.548;2.704;2023-04-01T13:16:43;99847.31;;;18.86;68.13
74680;BME280;63211;48.548;2.704;2023-04-01T13:19:17;99841.88;;;18.86;67.77
74680;BME280;63211;48.548;2.704;2023-04-01T13:21:54;99836.41;;;18.86;67.56
74680;BME280;63211;48.548;2.704;2023-04-01T13:24:36;99829.06;;;18.87;67.80
74680;BME280;63211;48.548;2.704;2023-04-01T13:27:10;99828.56;;;18.73;68.47
74680;BME280;63211;48.548;2.704;2023-04-01T13:29:41;99841.00;;;19.03;65.89
74680;BME280;63211;48.548;2.704;2023-04-01T13:32:19;99829.16;;;19.14;65.04
74680;BME280;63211;48.548;2.704;2023-04-01T13:34:59;99823.78;;;19.19;64.59
74680;BME280;63211;48.548;2.704;2023-04-01T13:37:44;99827.97;;;19.27;63.62
74680;BME280;63211;48.548;2.704;2023-04-01T13:40:27;99824.94;;;19.23;63.36
74680;BME280;63211;48.548;2.704;2023-04-01T13:43:04;99823.28;;;19.22;64.12
74680;BME280;63211;48.548;2.704;2023-04-01T13:45:42;99824.84;;;19.18;63.77
74680;BME280;63211;48.548;2.704;2023-04-01T13:48:29;99817.25;;;19.20;62.89
74680;BME280;63211;48.548;2.704;2023-04-01T13:53:59;99823.78;;;19.19;62.40
74680;BME280;63211;48.548;2.704;2023-04-01T13:56:40;99829.81;;;19.21;62.40
74680;BME280;63211;48.548;2.704;2023-04-01T13:59:33;99841.06;;;19.25;62.11
74680;BME280;63211;48.548;2.704;2023-04-01T14:02:24;99825.63;;;19.35;62.96
74680;BME280;63211;48.548;2.704;2023-04-01T14:05:09;99834.88;;;19.34;63.28
74680;BME280;63211;48.548;2.704;2023-04-01T14:07:50;99822.31;;;19.33;62.27
74680;BME280;63211;48.548;2.704;2023-04-01T14:10:25;99825.03;;;19.33;62.36
74680;BME280;63211;48.548;2.704;2023-04-01T14:13:01;99823.44;;;19.32;62.15
74680;BME280;63211;48.548;2.704;2023-04-01T14:15:42;99824.25;;;19.33;61.92
74680;BME280;63211;48.548;2.704;2023-04-01T14:18:33;99821.25;;;19.34;62.15
74680;BME280;63211;48.548;2.704;2023-04-01T14:21:17;99825.88;;;19.34;62.43
74680;BME280;63211;48.548;2.704;2023-04-01T14:24:22;99834.34;;;19.32;62.18
74680;BME280;63211;48.548;2.704;2023-04-01T14:27:21;99830.50;;;19.33;61.68
74680;BME280;63211;48.548;2.704;2023-04-01T14:30:04;99829.97;;;19.31;62.11
74680;BME280;63211;48.548;2.704;2023-04-01T14:32:46;99832.13;;;19.29;62.03